Impacts TAF Board INFO
FOR SITUATIONAL AWARENESS. NOT TO BE USED FOR FLIGHT PLANNING PURPOSES.
IDs:

KMGM - Montgomery/Dannely F, AL, US

Issued at 0849 UTC 17 Aug 2018
Updated at 0932 UTC 17 Aug 2018
Potential Impact None Slight Moderate High
Time<<17/22Z 17/23Z 18/00Z 18/01Z 18/02Z 18/03Z 18/04Z 18/05Z 18/06Z 18/07Z 18/08Z 18/09Z 18/10Z>>
Type PRVL
  [PRB30]  
PRVL
  [PRB30]  
PRVL PRVL PRVL PRVL PRVL PRVL
VIS >6
  [6]  
>6
  [6]  
>6 >6 >6 >6 >6 >6
CIG 40
  [40]  
40
  [40]  
40 40 40 40 40 40
Cover BKN
  [BKN]  
BKN
  [BKN]  
BKN BKN BKN BKN BKN BKN
FltCat VFR
  [VFR]  
VFR
  [VFR]  
VFR VFR VFR VFR VFR VFR
WX --
  [-TSRA]  
--
  [-TSRA]  
-- -- -- -- -- --
WDir 200
[200]
200
[200]
200 200 200 200 200 200
WSpd 8
  [8]  
8
  [8]  
8 8 8 8 8 8
WGst --
  [--]  
--
  [--]  
-- -- -- -- -- --

Raw TAF
KMGM 170849Z 1709/1806 15003KT 6SM BR BKN005
  FM171700 20008KT P6SM BKN040
  PROB30 1718/1724 6SM -TSRA BKN040CB


METAR Board
Radar Display
Forecast Discussion

FOR SITUATIONAL AWARENESS. NOT TO BE USED FOR FLIGHT PLANNING PURPOSES.